Harvest Peace — V7VE7 — position and weather

sailwx.info

Track history (hours):
 
Tides and Currents Weather Stations Pressure Air Temp Water Temp Dewpoint Dewpoint Depression Visibility Wind Speed Wind Dir Waves Ship Positions

Harvest Peace

Last reported at 2017-May-01 17:23 UTC. Time now 2017-May-29 13:24 UTC.
Position S 24°27' W 046°05'.
Warning: this ship's position is 27 days out of date.

Length 225 m; draft 13.2 m.

Type: Cargo ship. MMSI: 538004103.

Date/timePositionNaut miles runAvg speedWind from/ knotsBaromVisibWave heightAir tempDewpointWater temp
2017-May-01 17:23S 24°27' W 046°05'512.1
2017-May-01 16:58S 24°25' W 046°10'612.0
2017-May-01 16:30S 24°21' W 046°15'611.9
2017-May-01 16:00S 24°16' W 046°19'611.8
2017-May-01 15:30S 24°12' W 046°22'510.1
2017-May-01 15:00S 24°07' W 046°24'4 8.6
2017-May-01 14:30S 24°03' W 046°21'6 5.9
2017-May-01 13:29S 23°58' W 046°18'1 1.3
2017-May-01 13:00S 23°57' W 046°18'0 0.0
2017-Apr-30 20:58S 23°57' W 046°18'0 0.0
2017-Apr-30 20:28S 23°57' W 046°18'0 0.0
2017-Apr-30 19:55S 23°57' W 046°18'0 0.0
2017-Apr-30 18:10S 23°57' W 046°18'0 0.0
2017-Apr-30 17:52S 23°57' W 046°18'0 0.0
2017-Apr-30 17:04S 23°57' W 046°18'0 0.0
2017-Apr-30 16:52S 23°57' W 046°18'0 0.0
2017-Apr-30 16:22S 23°57' W 046°18'0 0.0
2017-Apr-30 15:52S 23°57' W 046°18'0 0.0
2017-Apr-30 15:10S 23°57' W 046°18'0 0.0
2017-Apr-30 14:58S 23°57' W 046°18'0 0.0
2017-Apr-30 14:28S 23°57' W 046°18'0 0.0
2017-Apr-30 12:40S 23°57' W 046°18'0 0.0
2017-Apr-30 12:16S 23°57' W 046°18'0 0.0
2017-Apr-30 11:58S 23°57' W 046°18'0 0.0
2017-Apr-30 11:22S 23°57' W 046°18'0 0.0
2017-Apr-30 10:46S 23°57' W 046°18'0 0.0
2017-Apr-30 09:46S 23°57' W 046°18'0 0.0
2017-Apr-30 09:22S 23°57' W 046°18'0 0.0
2017-Apr-30 08:58S 23°57' W 046°18'0 0.0
2017-Apr-30 08:16S 23°57' W 046°18'0 0.0
2017-Apr-30 07:58S 23°57' W 046°18'0 0.0
2017-Apr-30 07:22S 23°57' W 046°18'0 0.0
2017-Apr-30 03:46S 23°57' W 046°18'0 0.0
2017-Apr-30 00:22S 23°57' W 046°18'0 0.0
2017-Apr-29 21:04S 23°57' W 046°18'0 0.0
2017-Apr-29 20:46S 23°57' W 046°18'0 0.0
2017-Apr-29 18:04S 23°57' W 046°18'0 0.0
2017-Apr-29 16:52S 23°57' W 046°18'0 0.0
2017-Apr-29 16:28S 23°57' W 046°18'0 0.0
2017-Apr-29 15:58S 23°57' W 046°18'0 0.0
2017-Apr-29 14:40S 23°57' W 046°18'0 0.0
2017-Apr-29 05:58S 23°57' W 046°18'0 0.0
2017-Apr-29 04:34S 23°57' W 046°18'0 0.0
2017-Apr-29 04:22S 23°57' W 046°18'0 0.0
2017-Apr-29 03:52S 23°57' W 046°18'0 0.0
2017-Apr-28 17:22S 23°57' W 046°18'0 0.0
2017-Apr-28 16:40S 23°57' W 046°18'0 0.0
2017-Apr-28 16:16S 23°57' W 046°18'0 0.0
2017-Apr-28 11:04S 23°57' W 046°18'0 0.0
2017-Apr-28 10:52S 23°57' W 046°18'0 0.0
2017-Apr-28 10:10S 23°57' W 046°18'0 0.0
2017-Apr-28 09:40S 23°57' W 046°18'0 0.0
2017-Apr-28 09:22S 23°57' W 046°18'0 0.0
2017-Apr-28 08:58S 23°57' W 046°18'0 0.0
2017-Apr-28 08:28S 23°57' W 046°18'0 0.0
2017-Apr-28 07:58S 23°57' W 046°18'0 0.0
2017-Apr-28 05:49S 23°57' W 046°18'0 0.0
2017-Apr-28 04:46S 23°57' W 046°18'0 0.0
2017-Apr-28 04:28S 23°57' W 046°18'0 0.0
2017-Apr-28 03:58S 23°57' W 046°18'0 0.0
2017-Apr-28 03:16S 23°57' W 046°18'0 0.0
2017-Apr-28 02:58S 23°57' W 046°18'0 0.0
2017-Apr-27 19:34S 23°57' W 046°18'0 0.0
2017-Apr-27 19:28S 23°57' W 046°18'0 0.0
2017-Apr-27 13:43S 23°57' W 046°18'0 0.0
2017-Apr-27 13:16S 23°57' W 046°18'0 0.0
2017-Apr-27 12:58S 23°57' W 046°18'0 0.0
2017-Apr-27 12:25S 23°57' W 046°18'0 0.0
2017-Apr-27 11:58S 23°57' W 046°18'0 0.0
2017-Apr-27 11:28S 23°57' W 046°18'0 0.0
2017-Apr-26 13:04S 23°57' W 046°18'0 0.0
2017-Apr-26 12:55S 23°57' W 046°18'0 0.0
2017-Apr-26 12:01S 23°57' W 046°18'0 0.0
2017-Apr-26 10:43S 23°57' W 046°18'0 0.0
2017-Apr-26 04:32S 23°57' W 046°18'0 0.0
2017-Apr-26 04:30S 23°57' W 046°18'2 3.1
2017-Apr-26 04:00S 23°59' W 046°17'3 7.1
2017-Apr-26 03:31S 24°01' W 046°20'5 9.9
2017-Apr-26 03:01S 24°05' W 046°23'4 7.0
2017-Apr-26 02:30S 24°09' W 046°22'3 6.4
2017-Apr-26 02:00S 24°08' W 046°18'0 0.6
2017-Apr-26 01:31S 24°08' W 046°19'0 0.0
2017-Apr-26 01:00S 24°08' W 046°19'0 0.0
2017-Apr-26 00:31S 24°08' W 046°19'0 0.0
2017-Apr-26 00:00S 24°08' W 046°19'0 0.0
2017-Apr-25 23:31S 24°08' W 046°19'0 0.0
2017-Apr-25 23:00S 24°08' W 046°19'0 0.0
2017-Apr-25 22:30S 24°08' W 046°19'0 0.0
2017-Apr-25 22:00S 24°08' W 046°19'0 0.0
2017-Apr-25 21:30S 24°08' W 046°19'0 0.0
2017-Apr-25 21:00S 24°08' W 046°19'0 0.0
2017-Apr-25 20:31S 24°08' W 046°19'0 0.0
2017-Apr-25 20:00S 24°08' W 046°19'0 0.0
2017-Apr-25 19:30S 24°08' W 046°19'0 0.0
2017-Apr-25 19:01S 24°08' W 046°19'0 0.0
2017-Apr-25 18:30S 24°08' W 046°19'0 0.0
2017-Apr-25 18:00S 24°08' W 046°19'0 0.0
2017-Apr-25 17:31S 24°08' W 046°19'0 0.0
2017-Apr-25 17:01S 24°08' W 046°19'0 0.0
2017-Apr-25 16:30S 24°08' W 046°19'0 0.0
2017-Apr-25 16:01S 24°08' W 046°19'0 0.0
2017-Apr-25 15:31S 24°08' W 046°19'0 0.1
2017-Apr-25 15:00S 24°08' W 046°19'2 3.8
2017-Apr-25 14:30S 24°08' W 046°21'8 8.4
2017-Apr-25 13:31S 24°16' W 046°23'612.4
2017-Apr-25 13:01S 24°22' W 046°22'612.4
2017-Apr-25 12:30S 24°29' W 046°22'612.2
2017-Apr-25 12:00S 24°35' W 046°22'612.0
2017-Apr-25 11:30S 24°41' W 046°21'611.8
2017-Apr-25 11:00S 24°47' W 046°21'611.8
2017-Apr-25 10:30S 24°52' W 046°21'  
Track history (hours):
 
Tides and Currents Weather Stations Pressure Air Temp Water Temp Dewpoint Dewpoint Depression Visibility Wind Speed Wind Dir Waves Ship Positions

Harvest Peace

Last reported at 2017-May-01 17:23 UTC. Time now 2017-May-29 13:24 UTC.
Position S 24°27' W 046°05'.
Warning: this ship's position is 27 days out of date.

Length 225 m; draft 13.2 m.

Type: Cargo ship. MMSI: 538004103.

Date/timePositionNaut miles runAvg speedWind from/ knotsBaromVisibWave heightAir tempDewpointWater temp
2017-May-01 17:23S 24°27' W 046°05'512.1
2017-May-01 16:58S 24°25' W 046°10'612.0
2017-May-01 16:30S 24°21' W 046°15'611.9
2017-May-01 16:00S 24°16' W 046°19'611.8
2017-May-01 15:30S 24°12' W 046°22'510.1
2017-May-01 15:00S 24°07' W 046°24'4 8.6
2017-May-01 14:30S 24°03' W 046°21'6 5.9
2017-May-01 13:29S 23°58' W 046°18'1 1.3
2017-May-01 13:00S 23°57' W 046°18'0 0.0
2017-Apr-30 20:58S 23°57' W 046°18'0 0.0
2017-Apr-30 20:28S 23°57' W 046°18'0 0.0
2017-Apr-30 19:55S 23°57' W 046°18'0 0.0
2017-Apr-30 18:10S 23°57' W 046°18'0 0.0
2017-Apr-30 17:52S 23°57' W 046°18'0 0.0
2017-Apr-30 17:04S 23°57' W 046°18'0 0.0
2017-Apr-30 16:52S 23°57' W 046°18'0 0.0
2017-Apr-30 16:22S 23°57' W 046°18'0 0.0
2017-Apr-30 15:52S 23°57' W 046°18'0 0.0
2017-Apr-30 15:10S 23°57' W 046°18'0 0.0
2017-Apr-30 14:58S 23°57' W 046°18'0 0.0
2017-Apr-30 14:28S 23°57' W 046°18'0 0.0
2017-Apr-30 12:40S 23°57' W 046°18'0 0.0
2017-Apr-30 12:16S 23°57' W 046°18'0 0.0
2017-Apr-30 11:58S 23°57' W 046°18'0 0.0
2017-Apr-30 11:22S 23°57' W 046°18'0 0.0
2017-Apr-30 10:46S 23°57' W 046°18'0 0.0
2017-Apr-30 09:46S 23°57' W 046°18'0 0.0
2017-Apr-30 09:22S 23°57' W 046°18'0 0.0
2017-Apr-30 08:58S 23°57' W 046°18'0 0.0
2017-Apr-30 08:16S 23°57' W 046°18'0 0.0
2017-Apr-30 07:58S 23°57' W 046°18'0 0.0
2017-Apr-30 07:22S 23°57' W 046°18'0 0.0
2017-Apr-30 03:46S 23°57' W 046°18'0 0.0
2017-Apr-30 00:22S 23°57' W 046°18'0 0.0
2017-Apr-29 21:04S 23°57' W 046°18'0 0.0
2017-Apr-29 20:46S 23°57' W 046°18'0 0.0
2017-Apr-29 18:04S 23°57' W 046°18'0 0.0
2017-Apr-29 16:52S 23°57' W 046°18'0 0.0
2017-Apr-29 16:28S 23°57' W 046°18'0 0.0
2017-Apr-29 15:58S 23°57' W 046°18'0 0.0
2017-Apr-29 14:40S 23°57' W 046°18'0 0.0
2017-Apr-29 05:58S 23°57' W 046°18'0 0.0
2017-Apr-29 04:34S 23°57' W 046°18'0 0.0
2017-Apr-29 04:22S 23°57' W 046°18'0 0.0
2017-Apr-29 03:52S 23°57' W 046°18'0 0.0
2017-Apr-28 17:22S 23°57' W 046°18'0 0.0
2017-Apr-28 16:40S 23°57' W 046°18'0 0.0
2017-Apr-28 16:16S 23°57' W 046°18'0 0.0
2017-Apr-28 11:04S 23°57' W 046°18'0 0.0
2017-Apr-28 10:52S 23°57' W 046°18'0 0.0
2017-Apr-28 10:10S 23°57' W 046°18'0 0.0
2017-Apr-28 09:40S 23°57' W 046°18'0 0.0
2017-Apr-28 09:22S 23°57' W 046°18'0 0.0
2017-Apr-28 08:58S 23°57' W 046°18'0 0.0
2017-Apr-28 08:28S 23°57' W 046°18'0 0.0
2017-Apr-28 07:58S 23°57' W 046°18'0 0.0
2017-Apr-28 05:49S 23°57' W 046°18'0 0.0
2017-Apr-28 04:46S 23°57' W 046°18'0 0.0
2017-Apr-28 04:28S 23°57' W 046°18'0 0.0
2017-Apr-28 03:58S 23°57' W 046°18'0 0.0
2017-Apr-28 03:16S 23°57' W 046°18'0 0.0
2017-Apr-28 02:58S 23°57' W 046°18'0 0.0
2017-Apr-27 19:34S 23°57' W 046°18'0 0.0
2017-Apr-27 19:28S 23°57' W 046°18'0 0.0
2017-Apr-27 13:43S 23°57' W 046°18'0 0.0
2017-Apr-27 13:16S 23°57' W 046°18'0 0.0
2017-Apr-27 12:58S 23°57' W 046°18'0 0.0
2017-Apr-27 12:25S 23°57' W 046°18'0 0.0
2017-Apr-27 11:58S 23°57' W 046°18'0 0.0
2017-Apr-27 11:28S 23°57' W 046°18'0 0.0
2017-Apr-26 13:04S 23°57' W 046°18'0 0.0
2017-Apr-26 12:55S 23°57' W 046°18'0 0.0
2017-Apr-26 12:01S 23°57' W 046°18'0 0.0
2017-Apr-26 10:43S 23°57' W 046°18'0 0.0
2017-Apr-26 04:32S 23°57' W 046°18'0 0.0
2017-Apr-26 04:30S 23°57' W 046°18'2 3.1
2017-Apr-26 04:00S 23°59' W 046°17'3 7.1
2017-Apr-26 03:31S 24°01' W 046°20'5 9.9
2017-Apr-26 03:01S 24°05' W 046°23'4 7.0
2017-Apr-26 02:30S 24°09' W 046°22'3 6.4
2017-Apr-26 02:00S 24°08' W 046°18'0 0.6
2017-Apr-26 01:31S 24°08' W 046°19'0 0.0
2017-Apr-26 01:00S 24°08' W 046°19'0 0.0
2017-Apr-26 00:31S 24°08' W 046°19'0 0.0
2017-Apr-26 00:00S 24°08' W 046°19'0 0.0
2017-Apr-25 23:31S 24°08' W 046°19'0 0.0
2017-Apr-25 23:00S 24°08' W 046°19'0 0.0
2017-Apr-25 22:30S 24°08' W 046°19'0 0.0
2017-Apr-25 22:00S 24°08' W 046°19'0 0.0
2017-Apr-25 21:30S 24°08' W 046°19'0 0.0
2017-Apr-25 21:00S 24°08' W 046°19'0 0.0
2017-Apr-25 20:31S 24°08' W 046°19'0 0.0
2017-Apr-25 20:00S 24°08' W 046°19'0 0.0
2017-Apr-25 19:30S 24°08' W 046°19'0 0.0
2017-Apr-25 19:01S 24°08' W 046°19'0 0.0
2017-Apr-25 18:30S 24°08' W 046°19'0 0.0
2017-Apr-25 18:00S 24°08' W 046°19'0 0.0
2017-Apr-25 17:31S 24°08' W 046°19'0 0.0
2017-Apr-25 17:01S 24°08' W 046°19'0 0.0
2017-Apr-25 16:30S 24°08' W 046°19'0 0.0
2017-Apr-25 16:01S 24°08' W 046°19'0 0.0
2017-Apr-25 15:31S 24°08' W 046°19'0 0.1
2017-Apr-25 15:00S 24°08' W 046°19'2 3.8
2017-Apr-25 14:30S 24°08' W 046°21'8 8.4
2017-Apr-25 13:31S 24°16' W 046°23'612.4
2017-Apr-25 13:01S 24°22' W 046°22'612.4
2017-Apr-25 12:30S 24°29' W 046°22'612.2
2017-Apr-25 12:00S 24°35' W 046°22'612.0
2017-Apr-25 11:30S 24°41' W 046°21'611.8
2017-Apr-25 11:00S 24°47' W 046°21'611.8
2017-Apr-25 10:30S 24°52' W 046°21'  

Dump ship's entire track history